SESA/SNC METAR and TAF weather

Enter ICAO airport designator
Station Type Date Time Source
SESA METAR 2021/07/26 13:00 UTC NOAA

SESA 261300Z 21014KT 9999 SCT010 OVC016 21/20 Q1015 RMK A2998


Station Type Date Time Source
SESA Decoded METAR 2021/07/26 13:00 UTC NOAA

Salinas / General Ulpiano Paez, Ecuador (SESA) 02-12S 080-59W 8M
Jul 26, 2021 - 09:00 AM EDT / 2021.07.26 1300 UTC
Wind: from the SSW (210 degrees) at 16 MPH (14 KT):0
Visibility: greater than 7 mile(s):0
Sky conditions: overcast
Temperature: 69 F (21 C)
Dew Point: 68 F (20 C)
Relative Humidity: 94%
Pressure (altimeter): 29.97 in. Hg (1015 hPa)
ob: SESA 261300Z 21014KT 9999 SCT010 OVC016 21/20 Q1015 RMK A2998
cycle: 13

Station Type Date Time Source
SESA TAF UTC NOAA

Error!

Example: see airport list